Terminal Aerodrome Forecast
Issued by NWS

Home | Current Version | Previous Version | Graphics & Text | Print | Product List | Glossary On
Versions: 1 2 3 4 5 6 7 8 9 10 11 12 13 14 15 16 17 18 19 20 21 22 23 24 25
000
FTUS43 KMPX 290200 AAA
TAFRWF
TAF AMD
KRWF 290232Z 2903/2924 32009KT P6SM SCT080 BKN250
      TEMPO 2903/2905 BKN080 BKN250
     FM290800 36011KT P6SM SCT012 BKN060
     FM291000 02008KT P6SM BKN007 OVC018
     FM291500 05010KT P6SM VCSH SCT007 OVC018
     FM292100 06008KT P6SM SCT020 BKN040=

USA.gov is the U.S. government's official web portal to all federal, state and local government web resources and services.